Avoca, Indiana
Current Conditions -  °F | °C
As of 5:53 AM on Saturday 01 Nov 2014 (Local Time) from KBMG Reporting Station
Overcast Overcast  
Wind Chill: 23°   Ceiling: 5500
Heat Index: 33°   Visibility: 10mi
Dew Point: 23°   Wind: 16mph
Humidity: 66%   Direction: 10°N
Pressure: 30.24"   Gusts: 25mph
Location:  38.91°N, 86.55°W
Report Text: KBMG 010953Z 01014G22KT 10SM OVC055 01/M05 A3024 RMK AO2 SLP247 T00061050
Loading
Personal Weather Stations






























Interactive Weather Map New forecast layout! Learn more

10-Day Weather Forecast

Advertisements
Track Severe Weather on mobile